createdAt,value
2019-03-24T00:02:25.981Z,4.50
2019-03-24T00:04:59.516Z,4.53
2019-03-24T00:07:32.980Z,5.30
2019-03-24T00:10:07.996Z,5.23
2019-03-24T00:12:41.445Z,4.70
2019-03-24T00:15:25.452Z,5.03
2019-03-24T00:17:51.038Z,5.43
2019-03-24T00:20:24.471Z,4.83
2019-03-24T00:22:57.894Z,4.80
2019-03-24T00:25:31.433Z,5.10
2019-03-24T00:28:05.955Z,4.53
2019-03-24T00:30:39.539Z,4.80
2019-03-24T00:33:13.243Z,4.23
2019-03-24T00:35:46.932Z,4.83
2019-03-24T00:38:20.353Z,4.50
2019-03-24T00:40:53.976Z,4.13
2019-03-24T00:43:27.407Z,4.57
2019-03-24T00:46:01.236Z,3.80
2019-03-24T00:48:34.744Z,4.10
2019-03-24T00:51:08.360Z,4.07
2019-03-24T00:53:42.047Z,4.33
2019-03-24T00:56:15.639Z,3.57
2019-03-24T00:58:49.236Z,4.00
2019-03-24T01:01:22.608Z,4.07
2019-03-24T01:03:56.100Z,4.00
2019-03-24T01:06:29.710Z,3.87
2019-03-24T01:09:03.182Z,3.77
2019-03-24T01:11:36.821Z,4.20
2019-03-24T01:14:10.296Z,4.23
2019-03-24T01:16:43.957Z,4.13
2019-03-24T01:19:17.598Z,4.00
2019-03-24T01:21:51.095Z,4.20
2019-03-24T01:24:24.782Z,4.17
2019-03-24T01:26:58.300Z,4.17
2019-03-24T01:29:31.924Z,4.10
2019-03-24T01:32:05.431Z,4.33
2019-03-24T01:34:39.035Z,3.60
2019-03-24T01:37:12.561Z,3.03
2019-03-24T01:39:46.120Z,3.53
2019-03-24T01:42:19.706Z,4.20
2019-03-24T01:44:53.177Z,3.93
2019-03-24T01:47:26.653Z,3.30
2019-03-24T01:50:00.318Z,3.60
2019-03-24T01:52:33.780Z,3.67
2019-03-24T01:55:08.138Z,3.67
2019-03-24T01:57:41.684Z,3.30
2019-03-24T02:00:15.349Z,3.90
2019-03-24T02:02:48.789Z,3.50
2019-03-24T02:05:22.243Z,3.30
2019-03-24T02:07:55.652Z,3.40
2019-03-24T02:10:29.275Z,2.77
2019-03-24T02:13:02.874Z,2.50
2019-03-24T02:15:36.514Z,2.80
2019-03-24T02:18:10.034Z,2.87
2019-03-24T02:20:43.567Z,3.10
2019-03-24T02:23:17.070Z,3.00
2019-03-24T02:25:50.524Z,3.17
2019-03-24T02:28:24.022Z,3.20
2019-03-24T02:30:57.512Z,2.90
2019-03-24T02:33:30.994Z,2.77
2019-03-24T02:36:04.657Z,3.10
2019-03-24T02:38:38.155Z,3.60
2019-03-24T02:41:11.730Z,3.10
2019-03-24T02:43:45.287Z,3.50
2019-03-24T02:46:24.467Z,3.30
2019-03-24T02:48:54.239Z,2.67
2019-03-24T02:51:27.746Z,3.33
2019-03-24T02:54:01.230Z,3.53
2019-03-24T02:56:34.759Z,3.90
2019-03-24T02:59:08.159Z,4.30
2019-03-24T03:01:41.689Z,3.23
2019-03-24T03:04:15.217Z,4.00
2019-03-24T03:06:48.848Z,4.63
2019-03-24T03:09:22.280Z,4.40
2019-03-24T03:11:55.856Z,5.70
2019-03-24T03:14:29.332Z,5.83
2019-03-24T03:17:02.895Z,4.83
2019-03-24T03:19:36.307Z,5.23
2019-03-24T03:22:09.843Z,4.33
2019-03-24T03:24:43.428Z,3.60
2019-03-24T03:27:16.897Z,3.60
2019-03-24T03:29:50.610Z,3.77
2019-03-24T03:32:24.121Z,4.20
2019-03-24T03:34:57.820Z,3.60
2019-03-24T03:37:31.276Z,3.70
2019-03-24T03:40:06.731Z,3.47
2019-03-24T03:42:40.257Z,3.43
2019-03-24T03:45:16.843Z,3.93
2019-03-24T03:47:50.286Z,3.57
2019-03-24T03:50:23.702Z,4.20
2019-03-24T03:52:57.289Z,3.80
2019-03-24T03:55:30.715Z,3.43
2019-03-24T03:58:04.211Z,3.90
2019-03-24T04:00:37.791Z,3.40
2019-03-24T04:03:11.304Z,3.40
2019-03-24T04:05:44.729Z,3.07
2019-03-24T04:08:18.118Z,3.40
2019-03-24T04:10:51.528Z,3.33
2019-03-24T04:13:24.987Z,3.20
2019-03-24T04:15:58.390Z,3.80
2019-03-24T04:18:31.753Z,3.13
2019-03-24T04:21:05.329Z,3.27
2019-03-24T04:23:38.744Z,3.60
2019-03-24T04:26:12.189Z,3.50
2019-03-24T04:28:45.599Z,3.03
2019-03-24T04:31:19.008Z,3.07
2019-03-24T04:33:52.365Z,3.93
2019-03-24T04:36:25.767Z,3.47
2019-03-24T04:38:59.123Z,3.27
2019-03-24T04:41:32.489Z,3.20
2019-03-24T04:44:05.940Z,3.00
2019-03-24T04:46:39.277Z,3.57
2019-03-24T04:49:12.628Z,3.10
2019-03-24T04:51:46.005Z,3.13
2019-03-24T04:54:19.372Z,3.40
2019-03-24T04:56:52.882Z,4.27
2019-03-24T04:59:26.281Z,3.83
2019-03-24T05:01:59.755Z,3.37
2019-03-24T05:04:33.110Z,3.37
2019-03-24T05:07:06.557Z,3.37
2019-03-24T05:09:40.055Z,3.13
2019-03-24T05:12:13.615Z,3.00
2019-03-24T05:14:47.042Z,3.00
2019-03-24T05:17:26.927Z,3.90
2019-03-24T05:19:55.638Z,3.20
2019-03-24T05:22:28.999Z,3.60
2019-03-24T05:25:02.326Z,4.00
2019-03-24T05:27:35.769Z,3.47
2019-03-24T05:30:09.181Z,4.03
2019-03-24T05:32:42.627Z,4.10
2019-03-24T05:35:16.217Z,3.57
2019-03-24T05:37:49.598Z,4.07
2019-03-24T05:40:23.000Z,4.27
2019-03-24T05:42:56.551Z,4.73
2019-03-24T05:45:29.890Z,4.40
2019-03-24T05:48:03.347Z,4.03
2019-03-24T05:50:36.862Z,4.23
2019-03-24T05:53:10.514Z,4.17
2019-03-24T05:55:44.069Z,4.63
2019-03-24T05:58:17.468Z,4.60
2019-03-24T06:00:50.840Z,4.77
2019-03-24T06:03:24.207Z,5.03
2019-03-24T06:05:57.549Z,5.00
2019-03-24T06:08:31.666Z,4.17
2019-03-24T06:11:05.464Z,4.40
2019-03-24T06:13:38.967Z,4.77
2019-03-24T06:16:12.396Z,4.63
2019-03-24T06:18:45.841Z,6.03
2019-03-24T06:21:20.671Z,4.47
2019-03-24T06:23:54.189Z,4.17
2019-03-24T06:26:27.562Z,4.77
2019-03-24T06:29:01.092Z,3.80
2019-03-24T06:31:34.589Z,4.23
2019-03-24T06:34:08.031Z,4.37
2019-03-24T06:36:41.475Z,3.80
2019-03-24T06:39:14.865Z,4.47
2019-03-24T06:41:48.204Z,4.07
2019-03-24T06:44:21.746Z,4.40
2019-03-24T06:46:55.211Z,4.00
2019-03-24T06:49:28.666Z,3.93
2019-03-24T06:52:02.161Z,4.30
2019-03-24T06:54:35.582Z,4.07
2019-03-24T06:57:09.146Z,3.57
2019-03-24T06:59:42.585Z,4.23
2019-03-24T07:02:16.243Z,4.10
2019-03-24T07:04:49.641Z,4.10
2019-03-24T07:07:23.218Z,4.00
2019-03-24T07:09:56.702Z,4.10
2019-03-24T07:12:30.132Z,4.30
2019-03-24T07:15:04.576Z,3.57
2019-03-24T07:17:37.999Z,4.03
2019-03-24T07:20:12.032Z,4.07
2019-03-24T07:22:45.502Z,4.63
2019-03-24T07:25:18.915Z,3.83
2019-03-24T07:27:52.384Z,4.40
2019-03-24T07:30:25.914Z,4.63
2019-03-24T07:32:59.448Z,5.30
2019-03-24T07:35:33.087Z,6.47
2019-03-24T07:38:06.589Z,5.83
2019-03-24T07:40:39.999Z,6.33
2019-03-24T07:43:13.483Z,6.60
2019-03-24T07:45:47.004Z,6.17
2019-03-24T07:48:20.415Z,6.37
2019-03-24T07:50:54.027Z,6.30
2019-03-24T07:53:27.387Z,6.60
2019-03-24T07:56:00.993Z,6.60
2019-03-24T07:58:34.339Z,6.40
2019-03-24T08:01:07.882Z,6.70
2019-03-24T08:03:41.341Z,5.70
2019-03-24T08:06:14.814Z,6.00
2019-03-24T08:08:48.349Z,6.13
2019-03-24T08:11:21.964Z,5.77
2019-03-24T08:13:55.482Z,5.60
2019-03-24T08:16:29.114Z,6.33
2019-03-24T08:19:02.457Z,6.50
2019-03-24T08:21:35.830Z,6.17
2019-03-24T08:24:09.376Z,6.03
2019-03-24T08:26:42.977Z,5.67
2019-03-24T08:29:16.325Z,5.90
2019-03-24T08:31:49.954Z,5.20
2019-03-24T08:34:23.365Z,5.23
2019-03-24T08:36:56.852Z,5.50
2019-03-24T08:39:30.266Z,5.23
2019-03-24T08:42:03.813Z,5.53
2019-03-24T08:44:37.284Z,5.93
2019-03-24T08:47:10.809Z,4.77
2019-03-24T08:49:44.311Z,4.87
2019-03-24T08:52:17.753Z,4.80
2019-03-24T08:54:51.163Z,5.13
2019-03-24T08:57:24.727Z,4.43
2019-03-24T08:59:58.176Z,4.50
2019-03-24T09:02:31.617Z,5.05
2019-03-24T09:05:06.781Z,5.53
2019-03-24T09:07:40.163Z,5.15
2019-03-24T09:10:13.573Z,4.40
2019-03-24T09:12:47.228Z,4.90
2019-03-24T09:15:20.556Z,3.40
2019-03-24T09:17:53.990Z,4.10
2019-03-24T09:20:27.972Z,4.35
2019-03-24T09:23:01.605Z,3.62
2019-03-24T09:25:35.677Z,4.40
2019-03-24T09:28:09.399Z,4.78
2019-03-24T09:30:43.704Z,4.47
2019-03-24T09:33:18.916Z,4.20
2019-03-24T09:35:52.452Z,3.22
2019-03-24T09:38:26.421Z,4.17
2019-03-24T09:40:59.778Z,4.05
2019-03-24T09:43:33.820Z,3.75
2019-03-24T09:46:09.426Z,3.33
2019-03-24T09:48:42.940Z,3.30
2019-03-24T09:51:16.329Z,3.10
2019-03-24T09:53:49.939Z,2.65
2019-03-24T09:56:23.501Z,2.50
2019-03-24T09:58:58.199Z,2.95
2019-03-24T10:01:31.639Z,3.10
2019-03-24T10:04:08.532Z,3.20
2019-03-24T10:06:48.132Z,2.58
2019-03-24T10:09:21.610Z,2.87
2019-03-24T10:11:56.656Z,2.87
2019-03-24T10:14:30.842Z,2.87
2019-03-24T10:17:04.422Z,2.55
2019-03-24T10:19:37.817Z,3.33
2019-03-24T10:22:12.686Z,3.27
2019-03-24T10:24:46.175Z,3.02
2019-03-24T10:27:19.874Z,2.52
2019-03-24T10:29:53.347Z,3.00
2019-03-24T10:32:26.973Z,3.27
2019-03-24T10:35:00.690Z,3.33
2019-03-24T10:37:34.301Z,3.42
2019-03-24T10:40:08.108Z,3.80
2019-03-24T10:42:41.484Z,3.33
2019-03-24T10:45:15.198Z,3.80
2019-03-24T10:47:48.630Z,3.42
2019-03-24T10:50:22.120Z,3.60
2019-03-24T10:52:55.597Z,2.47
2019-03-24T10:55:29.082Z,2.20
2019-03-24T10:58:02.553Z,2.62
2019-03-24T11:00:42.913Z,2.75
2019-03-24T11:03:16.303Z,2.90
2019-03-24T11:05:49.723Z,2.08
2019-03-24T11:08:23.257Z,2.40
2019-03-24T11:10:56.683Z,2.72
2019-03-24T11:13:30.092Z,2.52
2019-03-24T11:16:03.562Z,2.40
2019-03-24T11:18:36.949Z,3.10
2019-03-24T11:21:10.452Z,3.33
2019-03-24T11:23:44.057Z,3.12
2019-03-24T11:26:17.388Z,2.70
2019-03-24T11:28:50.796Z,2.42
2019-03-24T11:31:24.284Z,3.17
2019-03-24T11:33:57.745Z,3.40
2019-03-24T11:36:31.191Z,1.98
2019-03-24T11:39:06.952Z,2.55
2019-03-24T11:41:40.365Z,2.20
2019-03-24T11:44:13.926Z,2.98
2019-03-24T11:46:47.344Z,3.15
2019-03-24T11:49:20.840Z,2.75
2019-03-24T11:51:54.423Z,2.65
2019-03-24T11:54:27.881Z,2.87
2019-03-24T11:57:01.283Z,2.47
2019-03-24T11:59:34.788Z,3.42
2019-03-24T12:02:08.203Z,2.67
2019-03-24T12:04:41.607Z,3.10
2019-03-24T12:07:14.970Z,3.95
2019-03-24T12:09:48.369Z,3.47
2019-03-24T12:12:21.826Z,3.02
2019-03-24T12:14:55.263Z,3.27
2019-03-24T12:17:28.703Z,4.22
2019-03-24T12:20:02.209Z,2.30
2019-03-24T12:22:35.661Z,2.58
2019-03-24T12:25:09.524Z,2.55
2019-03-24T12:27:43.004Z,2.12
2019-03-24T12:30:16.430Z,1.90
2019-03-24T12:32:49.885Z,2.40
2019-03-24T12:35:23.386Z,2.17
2019-03-24T12:37:56.752Z,2.35
2019-03-24T12:40:30.241Z,2.45
2019-03-24T12:43:03.704Z,2.45
2019-03-24T12:45:37.038Z,2.87
2019-03-24T12:48:10.680Z,2.80
2019-03-24T12:50:44.140Z,2.92
2019-03-24T12:53:17.622Z,2.72
2019-03-24T12:55:51.279Z,2.60
2019-03-24T12:58:24.782Z,2.62
2019-03-24T13:00:58.196Z,3.25
2019-03-24T13:03:31.652Z,2.70
2019-03-24T13:06:05.526Z,2.83
2019-03-24T13:08:38.963Z,2.95
2019-03-24T13:11:12.374Z,3.08
2019-03-24T13:13:45.852Z,3.10
2019-03-24T13:16:19.251Z,2.50
2019-03-24T13:18:52.695Z,3.22
2019-03-24T13:21:26.164Z,3.50
2019-03-24T13:23:59.701Z,2.85
2019-03-24T13:26:33.059Z,3.08
2019-03-24T13:29:06.647Z,3.42
2019-03-24T13:31:40.033Z,2.80
2019-03-24T13:34:13.426Z,2.35
2019-03-24T13:36:46.871Z,1.95
2019-03-24T13:39:20.362Z,2.58
2019-03-24T13:41:53.717Z,2.77
2019-03-24T13:44:27.150Z,2.42
2019-03-24T13:47:00.628Z,2.27
2019-03-24T13:49:34.082Z,2.50
2019-03-24T13:52:07.534Z,3.55
2019-03-24T13:54:40.910Z,2.45
2019-03-24T13:57:14.400Z,2.40
2019-03-24T13:59:47.838Z,2.45
2019-03-24T14:02:21.606Z,2.45
2019-03-24T14:04:55.155Z,2.60
2019-03-24T14:07:28.752Z,2.20
2019-03-24T14:10:02.540Z,2.08
2019-03-24T14:12:35.902Z,2.30
2019-03-24T14:15:09.614Z,3.02
2019-03-24T14:17:42.960Z,2.30
2019-03-24T14:20:16.769Z,2.40
2019-03-24T14:22:50.352Z,2.90
2019-03-24T14:25:23.872Z,2.10
2019-03-24T14:27:57.273Z,2.12
2019-03-24T14:30:47.810Z,2.15
2019-03-24T14:33:21.259Z,2.30
2019-03-24T14:35:54.644Z,1.95
2019-03-24T14:38:27.987Z,1.92
2019-03-24T14:41:01.489Z,1.85
2019-03-24T14:43:34.881Z,2.00
2019-03-24T14:46:08.380Z,2.12
2019-03-24T14:48:41.815Z,2.00
2019-03-24T14:51:15.252Z,2.67
2019-03-24T14:53:48.672Z,3.02
2019-03-24T14:56:22.128Z,2.65
2019-03-24T14:58:55.532Z,2.50
2019-03-24T15:01:28.949Z,2.15
2019-03-24T15:04:02.359Z,2.10
2019-03-24T15:06:35.810Z,2.30
2019-03-24T15:09:09.221Z,2.30
2019-03-24T15:11:42.679Z,1.90
2019-03-24T15:14:16.095Z,2.25
2019-03-24T15:16:49.567Z,2.20
2019-03-24T15:19:23.048Z,2.40
2019-03-24T15:21:56.550Z,2.02
2019-03-24T15:24:29.995Z,2.12
2019-03-24T15:27:03.889Z,1.98
2019-03-24T15:29:37.481Z,2.00
2019-03-24T15:32:10.973Z,1.80
2019-03-24T15:34:44.409Z,2.00
2019-03-24T15:37:17.810Z,2.20
2019-03-24T15:39:51.324Z,1.97
2019-03-24T15:42:24.745Z,1.80
2019-03-24T15:44:58.263Z,2.20
2019-03-24T15:47:31.800Z,2.00
2019-03-24T15:50:07.095Z,2.03
2019-03-24T15:52:40.426Z,2.30
2019-03-24T15:55:13.944Z,2.00
2019-03-24T15:57:47.437Z,2.15
2019-03-24T16:00:41.576Z,1.72
2019-03-24T16:03:15.057Z,2.17
2019-03-24T16:05:48.576Z,1.97
2019-03-24T16:08:22.013Z,1.80
2019-03-24T16:10:55.539Z,2.02
2019-03-24T16:13:28.872Z,2.30
2019-03-24T16:16:02.318Z,1.97
2019-03-24T16:18:35.662Z,1.83
2019-03-24T16:21:09.110Z,2.00
2019-03-24T16:23:42.476Z,1.90
2019-03-24T16:26:15.936Z,2.40
2019-03-24T16:28:49.276Z,2.50
2019-03-24T16:31:22.793Z,2.10
2019-03-24T16:33:56.214Z,2.50
2019-03-24T16:36:29.665Z,2.50
2019-03-24T16:39:06.865Z,1.97
2019-03-24T16:41:40.151Z,2.13
2019-03-24T16:44:13.644Z,2.40
2019-03-24T16:46:47.101Z,2.07
2019-03-24T16:49:21.361Z,1.97
2019-03-24T16:51:54.853Z,2.43
2019-03-24T16:54:28.264Z,2.87
2019-03-24T16:57:01.662Z,2.20
2019-03-24T16:59:35.114Z,2.60
2019-03-24T17:02:08.683Z,2.57
2019-03-24T17:04:42.036Z,2.70
2019-03-24T17:07:15.890Z,2.83
2019-03-24T17:09:49.255Z,2.17
2019-03-24T17:12:22.707Z,2.40
2019-03-24T17:14:56.043Z,2.47
2019-03-24T17:17:29.504Z,2.63
2019-03-24T17:20:03.282Z,2.83
2019-03-24T17:22:36.854Z,2.97
2019-03-24T17:25:11.246Z,2.90
2019-03-24T17:27:44.709Z,2.80
2019-03-24T17:30:18.195Z,2.33
2019-03-24T17:32:51.645Z,2.97
2019-03-24T17:35:25.008Z,2.70
2019-03-24T17:37:58.568Z,2.83
2019-03-24T17:40:38.560Z,2.83
2019-03-24T17:43:07.396Z,3.20
2019-03-24T17:45:40.815Z,2.40
2019-03-24T17:48:14.194Z,2.50
2019-03-24T17:50:47.630Z,3.27
2019-03-24T17:53:21.153Z,3.00
2019-03-24T17:55:54.531Z,2.80
2019-03-24T17:58:27.926Z,2.83
2019-03-24T18:01:01.325Z,2.97
2019-03-24T18:03:34.745Z,2.93
2019-03-24T18:06:08.204Z,2.83
2019-03-24T18:08:41.532Z,3.07
2019-03-24T18:11:14.980Z,3.00
2019-03-24T18:13:48.311Z,2.70
2019-03-24T18:16:21.752Z,2.70
2019-03-24T18:18:55.205Z,2.73
2019-03-24T18:21:28.666Z,2.50
2019-03-24T18:24:02.068Z,3.00
2019-03-24T18:26:35.553Z,2.70
2019-03-24T18:29:09.098Z,3.50
2019-03-24T18:31:43.102Z,3.00
2019-03-24T18:34:16.451Z,3.33
2019-03-24T18:36:49.942Z,3.33
2019-03-24T18:39:23.468Z,3.07
2019-03-24T18:41:57.037Z,2.67
2019-03-24T18:44:30.397Z,5.93
2019-03-24T18:47:03.930Z,2.87
2019-03-24T18:49:37.360Z,4.70
2019-03-24T18:52:10.801Z,4.70
2019-03-24T18:54:44.212Z,5.37
2019-03-24T18:57:17.718Z,8.37
2019-03-24T18:59:51.147Z,6.60
2019-03-24T19:02:24.516Z,4.53
2019-03-24T19:04:57.853Z,3.90
2019-03-24T19:07:31.229Z,3.10
2019-03-24T19:10:07.683Z,3.83
2019-03-24T19:12:41.335Z,3.93
2019-03-24T19:15:15.605Z,3.70
2019-03-24T19:17:49.076Z,3.20
2019-03-24T19:20:22.701Z,3.13
2019-03-24T19:22:56.066Z,3.33
2019-03-24T19:25:29.700Z,4.20
2019-03-24T19:28:03.241Z,6.53
2019-03-24T19:30:38.328Z,6.37
2019-03-24T19:33:11.858Z,8.40
2019-03-24T19:35:45.343Z,8.13
2019-03-24T19:38:20.357Z,9.07
2019-03-24T19:40:53.726Z,11.13
2019-03-24T19:43:27.194Z,11.43
2019-03-24T19:46:00.618Z,10.33
2019-03-24T19:48:34.068Z,8.67
2019-03-24T19:51:07.490Z,7.10
2019-03-24T19:53:40.886Z,4.93
2019-03-24T19:56:14.208Z,4.60
2019-03-24T19:58:47.626Z,3.93
2019-03-24T20:01:21.048Z,3.77
2019-03-24T20:03:54.490Z,4.50
2019-03-24T20:06:27.905Z,3.97
2019-03-24T20:09:01.340Z,4.03
2019-03-24T20:11:34.843Z,4.37
2019-03-24T20:14:08.360Z,4.40
2019-03-24T20:16:41.750Z,3.77
2019-03-24T20:19:15.293Z,4.37
2019-03-24T20:21:48.656Z,3.90
2019-03-24T20:24:22.167Z,3.80
2019-03-24T20:26:55.674Z,3.47
2019-03-24T20:29:29.157Z,4.03
2019-03-24T20:32:02.564Z,3.30
2019-03-24T20:34:36.033Z,3.63
2019-03-24T20:37:09.360Z,3.70
2019-03-24T20:39:42.763Z,3.27
2019-03-24T20:42:16.130Z,3.43
2019-03-24T20:44:49.526Z,3.80
2019-03-24T20:47:22.910Z,4.70
2019-03-24T20:49:56.294Z,4.20
2019-03-24T20:52:29.787Z,3.70
2019-03-24T20:55:04.377Z,4.70
2019-03-24T20:57:37.829Z,4.00
2019-03-24T21:00:11.779Z,4.03
2019-03-24T21:02:45.290Z,4.17
2019-03-24T21:05:18.679Z,4.23
2019-03-24T21:07:52.116Z,3.60
2019-03-24T21:10:25.457Z,3.20
2019-03-24T21:12:58.977Z,3.50
2019-03-24T21:15:32.399Z,3.80
2019-03-24T21:18:05.903Z,3.23
2019-03-24T21:20:39.253Z,3.13
2019-03-24T21:23:12.686Z,3.50
2019-03-24T21:25:46.240Z,3.60
2019-03-24T21:28:19.609Z,3.10
2019-03-24T21:30:52.958Z,3.63
2019-03-24T21:33:26.480Z,3.70
2019-03-24T21:36:00.028Z,2.83
2019-03-24T21:38:33.592Z,3.40
2019-03-24T21:41:07.110Z,3.90
2019-03-24T21:43:40.539Z,3.53
2019-03-24T21:46:13.977Z,3.00
2019-03-24T21:48:47.427Z,3.30
2019-03-24T21:51:20.797Z,4.37
2019-03-24T21:53:54.257Z,3.70
2019-03-24T21:56:27.579Z,3.40
2019-03-24T21:59:00.947Z,3.43
2019-03-24T22:01:34.377Z,3.60
2019-03-24T22:04:07.857Z,3.97
2019-03-24T22:06:41.224Z,3.40
2019-03-24T22:09:14.686Z,3.67
2019-03-24T22:11:48.018Z,4.00
2019-03-24T22:14:21.487Z,3.47
2019-03-24T22:16:54.924Z,3.57
2019-03-24T22:19:28.359Z,3.33
2019-03-24T22:22:01.686Z,3.27
2019-03-24T22:24:35.301Z,3.70
2019-03-24T22:27:08.783Z,3.93
2019-03-24T22:29:42.419Z,3.87
2019-03-24T22:32:16.145Z,4.40
2019-03-24T22:34:49.692Z,4.33
2019-03-24T22:37:23.343Z,4.23
2019-03-24T22:39:57.275Z,3.80
2019-03-24T22:42:31.315Z,3.27
2019-03-24T22:45:05.868Z,3.60
2019-03-24T22:47:39.795Z,3.73
2019-03-24T22:50:15.999Z,4.00
2019-03-24T22:52:49.498Z,4.07
2019-03-24T22:55:23.199Z,3.00
2019-03-24T22:57:56.697Z,3.13
2019-03-24T23:00:46.687Z,3.30
2019-03-24T23:03:20.246Z,2.57
2019-03-24T23:05:53.778Z,2.60
2019-03-24T23:08:27.410Z,3.03
2019-03-24T23:11:00.820Z,3.23
2019-03-24T23:13:34.249Z,2.90
2019-03-24T23:16:07.768Z,3.30
2019-03-24T23:18:41.220Z,3.47
2019-03-24T23:21:14.559Z,3.93
2019-03-24T23:23:47.958Z,3.40
2019-03-24T23:26:21.398Z,4.67
2019-03-24T23:28:54.864Z,3.30
2019-03-24T23:31:28.397Z,3.67
2019-03-24T23:34:01.858Z,3.67
2019-03-24T23:36:35.240Z,3.70
2019-03-24T23:39:09.149Z,3.17
2019-03-24T23:41:42.513Z,3.30
2019-03-24T23:44:16.027Z,3.50
2019-03-24T23:46:49.440Z,3.73
2019-03-24T23:49:22.882Z,3.53
2019-03-24T23:51:56.350Z,3.83
2019-03-24T23:54:29.725Z,3.70
2019-03-24T23:57:03.179Z,4.00
2019-03-24T23:59:36.924Z,4.00
